sensor_id;sensor_type;location;lat;lon;timestamp;P1;durP1;ratioP1;P2;durP2;ratioP2
79566;SDS011;69030;48.126;7.816;2023-08-21T00:01:49;11.95;;;8.80;;
79566;SDS011;69030;48.126;7.816;2023-08-21T00:04:14;12.95;;;9.07;;
79566;SDS011;69030;48.126;7.816;2023-08-21T00:06:39;11.65;;;8.98;;
79566;SDS011;69030;48.126;7.816;2023-08-21T00:09:05;10.13;;;9.13;;
79566;SDS011;69030;48.126;7.816;2023-08-21T00:11:30;11.63;;;9.45;;
79566;SDS011;69030;48.126;7.816;2023-08-21T00:13:55;8.95;;;8.05;;
79566;SDS011;69030;48.126;7.816;2023-08-21T00:16:21;11.32;;;8.70;;
79566;SDS011;69030;48.126;7.816;2023-08-21T00:18:46;9.52;;;6.95;;
79566;SDS011;69030;48.126;7.816;2023-08-21T00:21:12;13.18;;;9.43;;
79566;SDS011;69030;48.126;7.816;2023-08-21T00:23:37;9.32;;;7.55;;
79566;SDS011;69030;48.126;7.816;2023-08-21T00:26:03;11.23;;;8.45;;
79566;SDS011;69030;48.126;7.816;2023-08-21T00:28:29;13.40;;;9.35;;
79566;SDS011;69030;48.126;7.816;2023-08-21T00:31:01;12.07;;;8.55;;
79566;SDS011;69030;48.126;7.816;2023-08-21T00:33:27;11.93;;;9.52;;
79566;SDS011;69030;48.126;7.816;2023-08-21T00:35:54;11.15;;;9.40;;
79566;SDS011;69030;48.126;7.816;2023-08-21T00:38:19;11.65;;;7.00;;
79566;SDS011;69030;48.126;7.816;2023-08-21T00:40:44;9.95;;;8.55;;
79566;SDS011;69030;48.126;7.816;2023-08-21T00:43:10;10.82;;;8.52;;
79566;SDS011;69030;48.126;7.816;2023-08-21T00:45:35;11.15;;;8.25;;
79566;SDS011;69030;48.126;7.816;2023-08-21T00:48:00;11.02;;;8.18;;
79566;SDS011;69030;48.126;7.816;2023-08-21T00:50:26;10.15;;;7.90;;
79566;SDS011;69030;48.126;7.816;2023-08-21T00:52:51;9.68;;;8.30;;
79566;SDS011;69030;48.126;7.816;2023-08-21T00:55:16;10.63;;;7.97;;
79566;SDS011;69030;48.126;7.816;2023-08-21T00:57:42;8.82;;;7.57;;
79566;SDS011;69030;48.126;7.816;2023-08-21T01:00:08;9.90;;;8.35;;
79566;SDS011;69030;48.126;7.816;2023-08-21T01:02:35;8.73;;;7.82;;
79566;SDS011;69030;48.126;7.816;2023-08-21T01:05:00;11.02;;;8.07;;
79566;SDS011;69030;48.126;7.816;2023-08-21T01:07:26;10.48;;;8.82;;
79566;SDS011;69030;48.126;7.816;2023-08-21T01:10:15;9.93;;;7.50;;
79566;SDS011;69030;48.126;7.816;2023-08-21T01:12:42;12.07;;;8.10;;
79566;SDS011;69030;48.126;7.816;2023-08-21T01:15:12;10.23;;;8.95;;
79566;SDS011;69030;48.126;7.816;2023-08-21T01:17:38;10.60;;;8.82;;
79566;SDS011;69030;48.126;7.816;2023-08-21T01:20:05;11.02;;;8.55;;
79566;SDS011;69030;48.126;7.816;2023-08-21T01:22:35;12.75;;;10.93;;
79566;SDS011;69030;48.126;7.816;2023-08-21T01:25:02;13.10;;;9.70;;
79566;SDS011;69030;48.126;7.816;2023-08-21T01:27:27;11.93;;;9.82;;
79566;SDS011;69030;48.126;7.816;2023-08-21T01:29:53;10.60;;;9.02;;
79566;SDS011;69030;48.126;7.816;2023-08-21T01:35:03;11.00;;;9.00;;
79566;SDS011;69030;48.126;7.816;2023-08-21T01:37:29;12.80;;;9.38;;
79566;SDS011;69030;48.126;7.816;2023-08-21T01:39:57;10.75;;;9.52;;
79566;SDS011;69030;48.126;7.816;2023-08-21T01:42:23;10.63;;;8.82;;
79566;SDS011;69030;48.126;7.816;2023-08-21T01:44:48;15.18;;;11.82;;
79566;SDS011;69030;48.126;7.816;2023-08-21T01:47:13;11.85;;;10.48;;
79566;SDS011;69030;48.126;7.816;2023-08-21T01:49:39;11.32;;;9.40;;
79566;SDS011;69030;48.126;7.816;2023-08-21T01:52:04;10.45;;;9.05;;
79566;SDS011;69030;48.126;7.816;2023-08-21T01:54:29;12.65;;;11.18;;
79566;SDS011;69030;48.126;7.816;2023-08-21T01:56:55;13.00;;;10.27;;
79566;SDS011;69030;48.126;7.816;2023-08-21T01:59:21;12.23;;;9.93;;
79566;SDS011;69030;48.126;7.816;2023-08-21T02:01:48;13.05;;;10.45;;
79566;SDS011;69030;48.126;7.816;2023-08-21T02:04:13;12.60;;;9.40;;
79566;SDS011;69030;48.126;7.816;2023-08-21T02:06:39;12.93;;;10.10;;
79566;SDS011;69030;48.126;7.816;2023-08-21T02:09:04;14.15;;;11.00;;
79566;SDS011;69030;48.126;7.816;2023-08-21T02:11:29;12.10;;;9.98;;
79566;SDS011;69030;48.126;7.816;2023-08-21T02:13:54;12.13;;;8.10;;
79566;SDS011;69030;48.126;7.816;2023-08-21T02:16:20;14.65;;;9.88;;
79566;SDS011;69030;48.126;7.816;2023-08-21T02:18:46;11.20;;;9.35;;
79566;SDS011;69030;48.126;7.816;2023-08-21T02:21:12;13.48;;;11.18;;
79566;SDS011;69030;48.126;7.816;2023-08-21T02:23:38;14.55;;;9.60;;
79566;SDS011;69030;48.126;7.816;2023-08-21T02:26:03;13.38;;;9.27;;
79566;SDS011;69030;48.126;7.816;2023-08-21T02:28:28;11.80;;;8.27;;
79566;SDS011;69030;48.126;7.816;2023-08-21T02:30:54;8.60;;;7.00;;
79566;SDS011;69030;48.126;7.816;2023-08-21T02:33:19;10.95;;;8.82;;
79566;SDS011;69030;48.126;7.816;2023-08-21T02:35:44;11.48;;;8.50;;
79566;SDS011;69030;48.126;7.816;2023-08-21T02:38:10;9.85;;;6.85;;
79566;SDS011;69030;48.126;7.816;2023-08-21T02:40:35;9.57;;;7.72;;
79566;SDS011;69030;48.126;7.816;2023-08-21T02:43:00;10.82;;;8.18;;
79566;SDS011;69030;48.126;7.816;2023-08-21T02:45:26;9.40;;;8.15;;
79566;SDS011;69030;48.126;7.816;2023-08-21T02:47:51;10.20;;;8.65;;
79566;SDS011;69030;48.126;7.816;2023-08-21T02:50:16;10.73;;;8.70;;
79566;SDS011;69030;48.126;7.816;2023-08-21T02:52:42;10.82;;;8.57;;
79566;SDS011;69030;48.126;7.816;2023-08-21T02:55:07;11.70;;;9.10;;
79566;SDS011;69030;48.126;7.816;2023-08-21T02:57:33;10.43;;;9.30;;
79566;SDS011;69030;48.126;7.816;2023-08-21T02:59:58;10.60;;;9.50;;
79566;SDS011;69030;48.126;7.816;2023-08-21T03:02:24;11.35;;;8.02;;
79566;SDS011;69030;48.126;7.816;2023-08-21T03:04:49;12.50;;;9.50;;
79566;SDS011;69030;48.126;7.816;2023-08-21T03:07:15;9.63;;;8.35;;
79566;SDS011;69030;48.126;7.816;2023-08-21T03:09:41;10.13;;;8.85;;
79566;SDS011;69030;48.126;7.816;2023-08-21T03:12:07;10.18;;;8.70;;
79566;SDS011;69030;48.126;7.816;2023-08-21T03:14:33;13.50;;;10.32;;
79566;SDS011;69030;48.126;7.816;2023-08-21T03:16:58;13.90;;;10.23;;
79566;SDS011;69030;48.126;7.816;2023-08-21T03:19:24;11.65;;;10.07;;
79566;SDS011;69030;48.126;7.816;2023-08-21T03:21:49;13.38;;;10.30;;
79566;SDS011;69030;48.126;7.816;2023-08-21T03:24:14;12.73;;;10.63;;
79566;SDS011;69030;48.126;7.816;2023-08-21T03:26:40;11.30;;;10.10;;
79566;SDS011;69030;48.126;7.816;2023-08-21T03:29:05;12.10;;;10.30;;
79566;SDS011;69030;48.126;7.816;2023-08-21T03:31:30;13.15;;;11.15;;
79566;SDS011;69030;48.126;7.816;2023-08-21T03:33:56;12.38;;;10.77;;
79566;SDS011;69030;48.126;7.816;2023-08-21T03:36:22;16.00;;;11.30;;
79566;SDS011;69030;48.126;7.816;2023-08-21T03:38:55;12.23;;;10.82;;
79566;SDS011;69030;48.126;7.816;2023-08-21T03:41:21;14.15;;;11.10;;
79566;SDS011;69030;48.126;7.816;2023-08-21T03:43:47;14.77;;;11.40;;
79566;SDS011;69030;48.126;7.816;2023-08-21T03:46:12;13.32;;;10.30;;
79566;SDS011;69030;48.126;7.816;2023-08-21T03:48:37;19.02;;;12.30;;
79566;SDS011;69030;48.126;7.816;2023-08-21T03:51:03;13.00;;;11.70;;
79566;SDS011;69030;48.126;7.816;2023-08-21T03:53:28;16.23;;;11.40;;
79566;SDS011;69030;48.126;7.816;2023-08-21T03:55:53;15.27;;;10.93;;
79566;SDS011;69030;48.126;7.816;2023-08-21T03:58:19;14.55;;;10.68;;
79566;SDS011;69030;48.126;7.816;2023-08-21T04:00:44;11.82;;;10.10;;
79566;SDS011;69030;48.126;7.816;2023-08-21T04:03:10;11.65;;;9.90;;
79566;SDS011;69030;48.126;7.816;2023-08-21T04:05:35;12.82;;;10.48;;
79566;SDS011;69030;48.126;7.816;2023-08-21T04:08:01;17.02;;;11.15;;
79566;SDS011;69030;48.126;7.816;2023-08-21T04:10:26;15.38;;;10.32;;
79566;SDS011;69030;48.126;7.816;2023-08-21T04:12:51;14.60;;;11.48;;
79566;SDS011;69030;48.126;7.816;2023-08-21T04:15:17;12.90;;;10.73;;
79566;SDS011;69030;48.126;7.816;2023-08-21T04:17:42;14.82;;;10.07;;
79566;SDS011;69030;48.126;7.816;2023-08-21T04:20:07;15.15;;;11.95;;
79566;SDS011;69030;48.126;7.816;2023-08-21T04:22:33;13.07;;;11.35;;
79566;SDS011;69030;48.126;7.816;2023-08-21T04:24:59;16.60;;;11.52;;
79566;SDS011;69030;48.126;7.816;2023-08-21T04:27:25;14.18;;;11.02;;
79566;SDS011;69030;48.126;7.816;2023-08-21T04:29:50;14.20;;;10.77;;
79566;SDS011;69030;48.126;7.816;2023-08-21T04:32:15;22.70;;;11.40;;
79566;SDS011;69030;48.126;7.816;2023-08-21T04:34:41;15.35;;;11.20;;
79566;SDS011;69030;48.126;7.816;2023-08-21T04:37:06;17.33;;;11.25;;
79566;SDS011;69030;48.126;7.816;2023-08-21T04:39:31;12.63;;;10.07;;
79566;SDS011;69030;48.126;7.816;2023-08-21T04:41:57;14.77;;;10.30;;
79566;SDS011;69030;48.126;7.816;2023-08-21T04:44:22;15.13;;;11.43;;
79566;SDS011;69030;48.126;7.816;2023-08-21T04:46:48;13.32;;;12.00;;
79566;SDS011;69030;48.126;7.816;2023-08-21T04:49:14;11.98;;;10.68;;
79566;SDS011;69030;48.126;7.816;2023-08-21T04:51:39;13.10;;;11.20;;
79566;SDS011;69030;48.126;7.816;2023-08-21T04:54:05;13.68;;;11.60;;
79566;SDS011;69030;48.126;7.816;2023-08-21T04:56:30;18.55;;;11.38;;
79566;SDS011;69030;48.126;7.816;2023-08-21T04:58:55;13.48;;;10.98;;
79566;SDS011;69030;48.126;7.816;2023-08-21T05:01:21;12.52;;;10.57;;
79566;SDS011;69030;48.126;7.816;2023-08-21T05:03:46;15.00;;;10.45;;
79566;SDS011;69030;48.126;7.816;2023-08-21T05:06:11;13.75;;;11.82;;
79566;SDS011;69030;48.126;7.816;2023-08-21T05:08:37;15.00;;;10.45;;
79566;SDS011;69030;48.126;7.816;2023-08-21T05:11:02;12.75;;;9.25;;
79566;SDS011;69030;48.126;7.816;2023-08-21T05:13:27;12.88;;;9.68;;
79566;SDS011;69030;48.126;7.816;2023-08-21T05:15:53;14.50;;;10.27;;
79566;SDS011;69030;48.126;7.816;2023-08-21T05:18:19;12.88;;;9.85;;
79566;SDS011;69030;48.126;7.816;2023-08-21T05:20:46;12.95;;;8.38;;
79566;SDS011;69030;48.126;7.816;2023-08-21T05:23:14;13.25;;;8.48;;
79566;SDS011;69030;48.126;7.816;2023-08-21T05:25:40;12.82;;;11.02;;
79566;SDS011;69030;48.126;7.816;2023-08-21T05:28:06;12.18;;;9.80;;
79566;SDS011;69030;48.126;7.816;2023-08-21T05:30:32;12.77;;;11.40;;
79566;SDS011;69030;48.126;7.816;2023-08-21T05:32:57;14.27;;;9.10;;
79566;SDS011;69030;48.126;7.816;2023-08-21T05:35:23;12.60;;;9.23;;
79566;SDS011;69030;48.126;7.816;2023-08-21T05:37:48;11.93;;;10.05;;
79566;SDS011;69030;48.126;7.816;2023-08-21T05:40:13;11.10;;;9.82;;
79566;SDS011;69030;48.126;7.816;2023-08-21T05:42:39;11.52;;;9.88;;
79566;SDS011;69030;48.126;7.816;2023-08-21T05:45:05;11.88;;;9.68;;
79566;SDS011;69030;48.126;7.816;2023-08-21T05:47:30;12.75;;;10.00;;
79566;SDS011;69030;48.126;7.816;2023-08-21T05:49:56;12.27;;;10.13;;
79566;SDS011;69030;48.126;7.816;2023-08-21T05:52:21;13.27;;;9.70;;
79566;SDS011;69030;48.126;7.816;2023-08-21T05:54:47;12.88;;;9.80;;
79566;SDS011;69030;48.126;7.816;2023-08-21T05:57:13;13.57;;;10.13;;
79566;SDS011;69030;48.126;7.816;2023-08-21T05:59:43;12.55;;;9.38;;
79566;SDS011;69030;48.126;7.816;2023-08-21T06:02:10;13.35;;;10.07;;
79566;SDS011;69030;48.126;7.816;2023-08-21T06:04:35;10.85;;;9.32;;
79566;SDS011;69030;48.126;7.816;2023-08-21T06:07:01;11.32;;;9.80;;
79566;SDS011;69030;48.126;7.816;2023-08-21T06:09:28;10.27;;;8.85;;
79566;SDS011;69030;48.126;7.816;2023-08-21T06:11:54;12.85;;;9.57;;
79566;SDS011;69030;48.126;7.816;2023-08-21T06:14:20;12.27;;;7.95;;
79566;SDS011;69030;48.126;7.816;2023-08-21T06:16:53;10.52;;;9.52;;
79566;SDS011;69030;48.126;7.816;2023-08-21T06:19:18;9.90;;;8.77;;
79566;SDS011;69030;48.126;7.816;2023-08-21T06:21:44;9.23;;;8.40;;
79566;SDS011;69030;48.126;7.816;2023-08-21T06:24:09;9.60;;;8.57;;
79566;SDS011;69030;48.126;7.816;2023-08-21T06:26:35;10.63;;;8.85;;
79566;SDS011;69030;48.126;7.816;2023-08-21T06:29:00;9.63;;;8.40;;
79566;SDS011;69030;48.126;7.816;2023-08-21T06:31:26;9.63;;;8.38;;
79566;SDS011;69030;48.126;7.816;2023-08-21T06:33:51;12.40;;;7.05;;
79566;SDS011;69030;48.126;7.816;2023-08-21T06:36:16;8.95;;;6.28;;
79566;SDS011;69030;48.126;7.816;2023-08-21T06:38:42;12.63;;;9.43;;
79566;SDS011;69030;48.126;7.816;2023-08-21T06:41:10;11.18;;;8.15;;
79566;SDS011;69030;48.126;7.816;2023-08-21T06:43:36;11.23;;;8.65;;
79566;SDS011;69030;48.126;7.816;2023-08-21T06:46:01;10.13;;;7.97;;
79566;SDS011;69030;48.126;7.816;2023-08-21T06:48:27;12.85;;;8.98;;
79566;SDS011;69030;48.126;7.816;2023-08-21T06:50:52;9.13;;;8.18;;
79566;SDS011;69030;48.126;7.816;2023-08-21T06:53:18;9.30;;;7.70;;
79566;SDS011;69030;48.126;7.816;2023-08-21T06:55:46;11.93;;;9.45;;
79566;SDS011;69030;48.126;7.816;2023-08-21T06:58:12;13.43;;;8.68;;
79566;SDS011;69030;48.126;7.816;2023-08-21T07:00:38;10.77;;;8.43;;
79566;SDS011;69030;48.126;7.816;2023-08-21T07:03:03;10.02;;;7.95;;
79566;SDS011;69030;48.126;7.816;2023-08-21T07:05:32;12.13;;;9.13;;
79566;SDS011;69030;48.126;7.816;2023-08-21T07:08:00;10.35;;;8.65;;
79566;SDS011;69030;48.126;7.816;2023-08-21T07:10:26;13.25;;;9.20;;
79566;SDS011;69030;48.126;7.816;2023-08-21T07:12:53;14.70;;;8.82;;
79566;SDS011;69030;48.126;7.816;2023-08-21T07:15:22;12.27;;;9.43;;
79566;SDS011;69030;48.126;7.816;2023-08-21T07:17:48;13.23;;;8.85;;
79566;SDS011;69030;48.126;7.816;2023-08-21T07:20:13;13.05;;;8.60;;
79566;SDS011;69030;48.126;7.816;2023-08-21T07:22:39;10.20;;;9.18;;
79566;SDS011;69030;48.126;7.816;2023-08-21T07:25:04;15.70;;;8.65;;
79566;SDS011;69030;48.126;7.816;2023-08-21T07:27:31;9.60;;;7.57;;
79566;SDS011;69030;48.126;7.816;2023-08-21T07:29:57;10.68;;;8.52;;
79566;SDS011;69030;48.126;7.816;2023-08-21T07:32:22;12.93;;;9.32;;
79566;SDS011;69030;48.126;7.816;2023-08-21T07:34:51;14.48;;;9.90;;
79566;SDS011;69030;48.126;7.816;2023-08-21T07:37:18;11.80;;;9.82;;
79566;SDS011;69030;48.126;7.816;2023-08-21T07:39:43;11.35;;;9.10;;
79566;SDS011;69030;48.126;7.816;2023-08-21T07:42:10;10.05;;;8.95;;
79566;SDS011;69030;48.126;7.816;2023-08-21T07:44:36;12.20;;;9.32;;
79566;SDS011;69030;48.126;7.816;2023-08-21T07:47:02;18.85;;;10.23;;
79566;SDS011;69030;48.126;7.816;2023-08-21T07:49:27;11.93;;;8.48;;
79566;SDS011;69030;48.126;7.816;2023-08-21T07:51:53;10.27;;;7.55;;
79566;SDS011;69030;48.126;7.816;2023-08-21T07:54:18;11.02;;;9.27;;
79566;SDS011;69030;48.126;7.816;2023-08-21T07:56:44;11.35;;;8.48;;
79566;SDS011;69030;48.126;7.816;2023-08-21T07:59:09;10.70;;;8.15;;
79566;SDS011;69030;48.126;7.816;2023-08-21T08:01:35;11.55;;;10.38;;
79566;SDS011;69030;48.126;7.816;2023-08-21T08:04:00;9.70;;;8.23;;
79566;SDS011;69030;48.126;7.816;2023-08-21T08:06:25;9.82;;;8.88;;
79566;SDS011;69030;48.126;7.816;2023-08-21T08:08:51;12.32;;;7.38;;
79566;SDS011;69030;48.126;7.816;2023-08-21T08:11:16;9.93;;;7.70;;
79566;SDS011;69030;48.126;7.816;2023-08-21T08:13:42;10.57;;;8.07;;
79566;SDS011;69030;48.126;7.816;2023-08-21T08:16:07;10.02;;;8.65;;
79566;SDS011;69030;48.126;7.816;2023-08-21T08:18:32;9.27;;;8.27;;
79566;SDS011;69030;48.126;7.816;2023-08-21T08:20:58;10.35;;;8.45;;
79566;SDS011;69030;48.126;7.816;2023-08-21T08:23:23;10.68;;;9.10;;
79566;SDS011;69030;48.126;7.816;2023-08-21T08:25:49;10.10;;;8.65;;
79566;SDS011;69030;48.126;7.816;2023-08-21T08:28:15;10.10;;;8.23;;
79566;SDS011;69030;48.126;7.816;2023-08-21T08:30:40;9.98;;;8.50;;
79566;SDS011;69030;48.126;7.816;2023-08-21T08:33:06;11.38;;;9.55;;
79566;SDS011;69030;48.126;7.816;2023-08-21T08:35:31;10.25;;;9.25;;
79566;SDS011;69030;48.126;7.816;2023-08-21T08:37:56;9.43;;;8.13;;
79566;SDS011;69030;48.126;7.816;2023-08-21T08:40:22;9.25;;;8.35;;
79566;SDS011;69030;48.126;7.816;2023-08-21T08:42:47;7.57;;;6.63;;
79566;SDS011;69030;48.126;7.816;2023-08-21T08:45:13;9.48;;;8.35;;
79566;SDS011;69030;48.126;7.816;2023-08-21T08:47:41;13.10;;;8.63;;
79566;SDS011;69030;48.126;7.816;2023-08-21T08:50:07;10.98;;;8.18;;
79566;SDS011;69030;48.126;7.816;2023-08-21T08:52:34;10.80;;;7.95;;
79566;SDS011;69030;48.126;7.816;2023-08-21T08:55:00;10.82;;;7.68;;
79566;SDS011;69030;48.126;7.816;2023-08-21T08:57:25;9.40;;;8.38;;
79566;SDS011;69030;48.126;7.816;2023-08-21T08:59:51;10.95;;;9.02;;
79566;SDS011;69030;48.126;7.816;2023-08-21T09:02:16;11.65;;;8.70;;
79566;SDS011;69030;48.126;7.816;2023-08-21T09:04:42;10.27;;;8.25;;
79566;SDS011;69030;48.126;7.816;2023-08-21T09:07:08;9.70;;;7.25;;
79566;SDS011;69030;48.126;7.816;2023-08-21T09:09:40;9.45;;;8.50;;
79566;SDS011;69030;48.126;7.816;2023-08-21T09:12:09;9.10;;;8.27;;
79566;SDS011;69030;48.126;7.816;2023-08-21T09:14:35;8.90;;;6.72;;
79566;SDS011;69030;48.126;7.816;2023-08-21T09:17:01;10.63;;;9.32;;
79566;SDS011;69030;48.126;7.816;2023-08-21T09:19:29;9.38;;;8.40;;
79566;SDS011;69030;48.126;7.816;2023-08-21T09:21:54;8.85;;;7.95;;
79566;SDS011;69030;48.126;7.816;2023-08-21T09:24:20;11.60;;;7.00;;
79566;SDS011;69030;48.126;7.816;2023-08-21T09:26:45;11.27;;;8.05;;
79566;SDS011;69030;48.126;7.816;2023-08-21T09:29:10;7.60;;;6.57;;
79566;SDS011;69030;48.126;7.816;2023-08-21T09:31:36;9.48;;;7.82;;
79566;SDS011;69030;48.126;7.816;2023-08-21T09:34:02;11.07;;;7.78;;
79566;SDS011;69030;48.126;7.816;2023-08-21T09:36:30;9.57;;;8.07;;
79566;SDS011;69030;48.126;7.816;2023-08-21T09:38:55;8.07;;;7.20;;
79566;SDS011;69030;48.126;7.816;2023-08-21T09:41:21;10.70;;;6.88;;
79566;SDS011;69030;48.126;7.816;2023-08-21T09:43:48;9.90;;;8.32;;
79566;SDS011;69030;48.126;7.816;2023-08-21T09:46:14;9.85;;;7.45;;
79566;SDS011;69030;48.126;7.816;2023-08-21T09:48:46;9.50;;;7.53;;
79566;SDS011;69030;48.126;7.816;2023-08-21T09:51:12;9.73;;;7.50;;
79566;SDS011;69030;48.126;7.816;2023-08-21T09:53:37;11.05;;;9.38;;
79566;SDS011;69030;48.126;7.816;2023-08-21T09:56:04;8.98;;;7.78;;
79566;SDS011;69030;48.126;7.816;2023-08-21T09:58:31;8.63;;;7.47;;
79566;SDS011;69030;48.126;7.816;2023-08-21T10:00:57;8.65;;;7.45;;
79566;SDS011;69030;48.126;7.816;2023-08-21T10:03:23;10.18;;;8.15;;
79566;SDS011;69030;48.126;7.816;2023-08-21T10:05:49;10.38;;;8.50;;
79566;SDS011;69030;48.126;7.816;2023-08-21T10:08:24;9.90;;;8.23;;
79566;SDS011;69030;48.126;7.816;2023-08-21T10:10:50;8.80;;;7.85;;
79566;SDS011;69030;48.126;7.816;2023-08-21T10:13:16;11.88;;;8.25;;
79566;SDS011;69030;48.126;7.816;2023-08-21T10:15:42;10.32;;;7.45;;
79566;SDS011;69030;48.126;7.816;2023-08-21T10:18:18;9.80;;;7.05;;
79566;SDS011;69030;48.126;7.816;2023-08-21T10:20:54;9.00;;;7.50;;
79566;SDS011;69030;48.126;7.816;2023-08-21T10:23:27;8.13;;;7.43;;
79566;SDS011;69030;48.126;7.816;2023-08-21T10:25:54;9.02;;;7.15;;
79566;SDS011;69030;48.126;7.816;2023-08-21T10:28:21;9.90;;;7.70;;
79566;SDS011;69030;48.126;7.816;2023-08-21T10:30:46;9.38;;;7.70;;
79566;SDS011;69030;48.126;7.816;2023-08-21T10:33:12;10.18;;;8.68;;
79566;SDS011;69030;48.126;7.816;2023-08-21T10:35:37;10.43;;;5.85;;
79566;SDS011;69030;48.126;7.816;2023-08-21T10:40:36;9.02;;;8.13;;
79566;SDS011;69030;48.126;7.816;2023-08-21T10:43:02;8.52;;;7.30;;
79566;SDS011;69030;48.126;7.816;2023-08-21T10:45:28;10.80;;;7.95;;
79566;SDS011;69030;48.126;7.816;2023-08-21T10:47:56;7.28;;;6.60;;
79566;SDS011;69030;48.126;7.816;2023-08-21T10:50:22;8.25;;;6.93;;
79566;SDS011;69030;48.126;7.816;2023-08-21T10:52:48;7.25;;;6.45;;
79566;SDS011;69030;48.126;7.816;2023-08-21T10:55:17;14.35;;;7.38;;
79566;SDS011;69030;48.126;7.816;2023-08-21T10:57:48;8.13;;;7.32;;
79566;SDS011;69030;48.126;7.816;2023-08-21T11:00:15;8.05;;;7.10;;
79566;SDS011;69030;48.126;7.816;2023-08-21T11:02:46;11.88;;;6.28;;
79566;SDS011;69030;48.126;7.816;2023-08-21T11:05:13;7.50;;;6.70;;
79566;SDS011;69030;48.126;7.816;2023-08-21T11:07:40;7.93;;;7.18;;
79566;SDS011;69030;48.126;7.816;2023-08-21T11:10:11;8.55;;;7.65;;
79566;SDS011;69030;48.126;7.816;2023-08-21T11:12:48;7.18;;;6.07;;
79566;SDS011;69030;48.126;7.816;2023-08-21T11:15:17;8.32;;;7.40;;
79566;SDS011;69030;48.126;7.816;2023-08-21T11:17:50;7.20;;;5.88;;
79566;SDS011;69030;48.126;7.816;2023-08-21T11:20:16;11.55;;;6.70;;
79566;SDS011;69030;48.126;7.816;2023-08-21T11:22:42;9.48;;;6.93;;
79566;SDS011;69030;48.126;7.816;2023-08-21T11:25:07;9.50;;;6.60;;
79566;SDS011;69030;48.126;7.816;2023-08-21T11:27:33;8.35;;;7.47;;
79566;SDS011;69030;48.126;7.816;2023-08-21T11:29:58;6.95;;;6.30;;
79566;SDS011;69030;48.126;7.816;2023-08-21T11:32:25;7.30;;;6.15;;
79566;SDS011;69030;48.126;7.816;2023-08-21T11:34:51;7.93;;;5.97;;
79566;SDS011;69030;48.126;7.816;2023-08-21T11:37:19;8.07;;;6.35;;
79566;SDS011;69030;48.126;7.816;2023-08-21T11:39:47;6.80;;;5.97;;
79566;SDS011;69030;48.126;7.816;2023-08-21T11:42:15;7.18;;;5.80;;
79566;SDS011;69030;48.126;7.816;2023-08-21T11:47:11;6.88;;;5.93;;
79566;SDS011;69030;48.126;7.816;2023-08-21T11:49:40;6.70;;;5.43;;
79566;SDS011;69030;48.126;7.816;2023-08-21T11:52:06;7.82;;;6.20;;
79566;SDS011;69030;48.126;7.816;2023-08-21T11:54:35;7.05;;;6.35;;
79566;SDS011;69030;48.126;7.816;2023-08-21T11:57:09;6.00;;;5.40;;
79566;SDS011;69030;48.126;7.816;2023-08-21T11:59:37;6.82;;;5.90;;
79566;SDS011;69030;48.126;7.816;2023-08-21T12:02:19;7.30;;;6.15;;
79566;SDS011;69030;48.126;7.816;2023-08-21T12:05:03;7.20;;;5.85;;
79566;SDS011;69030;48.126;7.816;2023-08-21T12:07:30;6.40;;;5.72;;
79566;SDS011;69030;48.126;7.816;2023-08-21T12:09:56;7.53;;;3.78;;
79566;SDS011;69030;48.126;7.816;2023-08-21T12:12:21;6.85;;;5.78;;
79566;SDS011;69030;48.126;7.816;2023-08-21T12:14:47;9.02;;;5.43;;
79566;SDS011;69030;48.126;7.816;2023-08-21T12:17:13;10.18;;;5.50;;
79566;SDS011;69030;48.126;7.816;2023-08-21T12:19:38;9.73;;;4.93;;
79566;SDS011;69030;48.126;7.816;2023-08-21T12:22:03;10.27;;;6.05;;
79566;SDS011;69030;48.126;7.816;2023-08-21T12:24:29;6.85;;;5.65;;
79566;SDS011;69030;48.126;7.816;2023-08-21T12:26:55;7.80;;;5.38;;
79566;SDS011;69030;48.126;7.816;2023-08-21T12:29:20;9.00;;;5.18;;
79566;SDS011;69030;48.126;7.816;2023-08-21T12:31:46;6.55;;;4.90;;
79566;SDS011;69030;48.126;7.816;2023-08-21T12:34:12;7.68;;;4.97;;
79566;SDS011;69030;48.126;7.816;2023-08-21T12:36:37;6.50;;;5.90;;
79566;SDS011;69030;48.126;7.816;2023-08-21T12:39:06;7.22;;;5.13;;
79566;SDS011;69030;48.126;7.816;2023-08-21T12:41:31;5.90;;;5.30;;
79566;SDS011;69030;48.126;7.816;2023-08-21T12:43:58;7.07;;;6.00;;
79566;SDS011;69030;48.126;7.816;2023-08-21T12:46:25;8.88;;;5.43;;
79566;SDS011;69030;48.126;7.816;2023-08-21T12:48:53;10.40;;;5.63;;
79566;SDS011;69030;48.126;7.816;2023-08-21T12:51:18;8.02;;;5.65;;
79566;SDS011;69030;48.126;7.816;2023-08-21T12:53:44;7.40;;;5.28;;
79566;SDS011;69030;48.126;7.816;2023-08-21T12:56:09;7.03;;;5.55;;
79566;SDS011;69030;48.126;7.816;2023-08-21T12:58:34;9.15;;;6.40;;
79566;SDS011;69030;48.126;7.816;2023-08-21T13:01:00;11.82;;;6.47;;
79566;SDS011;69030;48.126;7.816;2023-08-21T13:03:25;7.60;;;5.50;;
79566;SDS011;69030;48.126;7.816;2023-08-21T13:05:51;11.55;;;5.97;;
79566;SDS011;69030;48.126;7.816;2023-08-21T13:08:16;6.53;;;5.68;;
79566;SDS011;69030;48.126;7.816;2023-08-21T13:10:42;9.45;;;6.03;;
79566;SDS011;69030;48.126;7.816;2023-08-21T13:13:07;8.50;;;5.78;;
79566;SDS011;69030;48.126;7.816;2023-08-21T13:15:32;6.78;;;5.80;;
79566;SDS011;69030;48.126;7.816;2023-08-21T13:17:58;6.45;;;5.80;;
79566;SDS011;69030;48.126;7.816;2023-08-21T13:20:23;8.20;;;5.50;;
79566;SDS011;69030;48.126;7.816;2023-08-21T13:22:49;9.35;;;4.90;;
79566;SDS011;69030;48.126;7.816;2023-08-21T13:25:18;6.75;;;4.50;;
79566;SDS011;69030;48.126;7.816;2023-08-21T13:27:45;8.02;;;4.68;;
79566;SDS011;69030;48.126;7.816;2023-08-21T13:30:11;5.60;;;4.45;;
79566;SDS011;69030;48.126;7.816;2023-08-21T13:32:37;6.20;;;5.15;;
79566;SDS011;69030;48.126;7.816;2023-08-21T13:35:02;9.30;;;5.22;;
79566;SDS011;69030;48.126;7.816;2023-08-21T13:37:31;7.78;;;5.70;;
79566;SDS011;69030;48.126;7.816;2023-08-21T13:40:00;7.65;;;5.07;;
79566;SDS011;69030;48.126;7.816;2023-08-21T13:42:26;5.32;;;4.75;;
79566;SDS011;69030;48.126;7.816;2023-08-21T13:44:55;8.45;;;5.20;;
79566;SDS011;69030;48.126;7.816;2023-08-21T13:47:22;7.43;;;5.28;;
79566;SDS011;69030;48.126;7.816;2023-08-21T13:49:47;6.03;;;4.57;;
79566;SDS011;69030;48.126;7.816;2023-08-21T13:52:12;8.55;;;5.25;;
79566;SDS011;69030;48.126;7.816;2023-08-21T13:54:38;10.02;;;5.15;;
79566;SDS011;69030;48.126;7.816;2023-08-21T13:57:03;10.68;;;4.28;;
79566;SDS011;69030;48.126;7.816;2023-08-21T13:59:28;8.45;;;4.55;;
79566;SDS011;69030;48.126;7.816;2023-08-21T14:01:54;7.60;;;4.82;;
79566;SDS011;69030;48.126;7.816;2023-08-21T14:04:19;6.13;;;4.50;;
79566;SDS011;69030;48.126;7.816;2023-08-21T14:06:44;7.43;;;4.53;;
79566;SDS011;69030;48.126;7.816;2023-08-21T14:09:10;4.80;;;4.13;;
79566;SDS011;69030;48.126;7.816;2023-08-21T14:11:36;6.97;;;4.18;;
79566;SDS011;69030;48.126;7.816;2023-08-21T14:14:01;7.38;;;4.55;;
79566;SDS011;69030;48.126;7.816;2023-08-21T14:16:27;6.80;;;3.92;;
79566;SDS011;69030;48.126;7.816;2023-08-21T14:18:52;7.00;;;4.57;;
79566;SDS011;69030;48.126;7.816;2023-08-21T14:21:17;7.63;;;4.03;;
79566;SDS011;69030;48.126;7.816;2023-08-21T14:23:43;4.68;;;4.00;;
79566;SDS011;69030;48.126;7.816;2023-08-21T14:26:08;7.80;;;4.30;;
79566;SDS011;69030;48.126;7.816;2023-08-21T14:28:33;5.47;;;4.15;;
79566;SDS011;69030;48.126;7.816;2023-08-21T14:30:58;10.27;;;4.88;;
79566;SDS011;69030;48.126;7.816;2023-08-21T14:33:24;6.35;;;4.70;;
79566;SDS011;69030;48.126;7.816;2023-08-21T14:35:49;4.57;;;3.85;;
79566;SDS011;69030;48.126;7.816;2023-08-21T14:38:15;4.82;;;3.33;;
79566;SDS011;69030;48.126;7.816;2023-08-21T14:40:41;7.85;;;4.15;;